LFMI 221130Z AUTO VRB03KT 9999 FEW023 15/08 Q1032 NOSIG

ElémentsDécodage
LFMI Station météo située sur l'aérodrome de ISTRES Le-Tubé
221130Z émis le 22 du mois à 11h30 UTC
AUTO Bulletin édité par un automate
VRB03KT vent de direction variable, 03 noeuds
9999 visibilité horizontale supérieure à 10 Km
FEW023 nuages rares (1/8 à 2/8) à 2300 pieds
15/08 température 15°C, point de rosée 08°C
 soit une humidité relative de 63%
Q1032 la pression au niveau de la mer (QNH) est de 1032 hPa
NOSIG Pas de changement significatif prévu au cours des deux heures suivant l'heure de l'observation